Time;durP1;ratioP1;P1;durP2;ratioP2;P2;SDS_P1;SDS_P2;PMS_P1;PMS_P2;Temp;Humidity;BMP_temperature;BMP_pressure;BME280_temperature;BME280_humidity;BME280_pressure;Samples;Min_cycle;Max_cycle;Signal;HPM_P1;HPM_P2
2022/03/26 00:03:42;;;;;;;23.50;12.30;;;;;;;;;;8148301;28;20046;-59
2022/03/26 00:07:42;;;;;;;24.08;11.05;;;;;;;;;;8148461;29;20019;-59
2022/03/26 00:11:43;;;;;;;21.70;11.57;;;;;;;;;;8147071;28;20051;-59
2022/03/26 00:15:43;;;;;;;20.88;12.13;;;;;;;;;;8152033;28;20047;-59
2022/03/26 00:19:43;;;;;;;25.50;11.55;;;;;;;;;;8148461;29;20843;-59
2022/03/26 00:23:43;;;;;;;19.92;10.75;;;;;;;;;;8148534;29;20034;-59
2022/03/26 00:27:43;;;;;;;22.90;11.55;;;;;;;;;;8148709;28;20023;-59
2022/03/26 00:31:44;;;;;;;31.95;12.23;;;;;;;;;;8150388;28;20126;-60
2022/03/26 00:35:44;;;;;;;23.37;11.57;;;;;;;;;;8149229;28;20808;-59
2022/03/26 00:39:44;;;;;;;22.42;11.88;;;;;;;;;;8147920;29;20024;-59
2022/03/26 00:43:44;;;;;;;23.63;11.15;;;;;;;;;;8148306;29;20028;-59
2022/03/26 00:47:45;;;;;;;26.60;11.52;;;;;;;;;;8149035;28;20035;-59
2022/03/26 00:51:45;;;;;;;21.95;11.63;;;;;;;;;;8148250;29;20061;-58
2022/03/26 00:55:45;;;;;;;19.63;10.67;;;;;;;;;;8149351;28;20059;-59
2022/03/26 00:59:45;;;;;;;20.05;12.05;;;;;;;;;;8148020;28;20717;-59
2022/03/26 01:03:46;;;;;;;22.53;11.33;;;;;;;;;;8149024;28;20039;-59
2022/03/26 01:07:46;;;;;;;23.10;11.40;;;;;;;;;;8147202;28;20286;-59
2022/03/26 01:11:47;;;;;;;24.77;12.45;;;;;;;;;;8146839;29;20054;-59
2022/03/26 01:15:47;;;;;;;23.00;11.73;;;;;;;;;;8145271;28;20451;-59
2022/03/26 01:19:47;;;;;;;26.85;11.48;;;;;;;;;;8144470;28;20271;-59
2022/03/26 01:23:48;;;;;;;27.95;12.18;;;;;;;;;;8145343;28;20062;-59
2022/03/26 01:27:48;;;;;;;23.05;11.35;;;;;;;;;;8145408;29;20370;-59
2022/03/26 01:31:49;;;;;;;21.48;11.27;;;;;;;;;;8146074;28;20043;-59
2022/03/26 01:35:49;;;;;;;20.55;10.75;;;;;;;;;;8144926;29;20027;-59
2022/03/26 01:39:52;;;;;;;24.50;10.82;;;;;;;;;;8146292;28;20031;-59
2022/03/26 01:43:53;;;;;;;26.83;11.67;;;;;;;;;;8147312;29;20023;-59
2022/03/26 01:47:54;;;;;;;21.60;10.95;;;;;;;;;;8144719;28;20042;-59
2022/03/26 01:51:54;;;;;;;23.13;10.48;;;;;;;;;;8147570;28;20618;-59
2022/03/26 01:55:54;;;;;;;25.10;11.05;;;;;;;;;;8147140;29;20551;-59
2022/03/26 01:59:55;;;;;;;22.42;11.07;;;;;;;;;;8147256;28;20552;-59
2022/03/26 02:03:55;;;;;;;23.95;11.38;;;;;;;;;;8146368;28;20043;-58
2022/03/26 02:07:56;;;;;;;21.15;10.57;;;;;;;;;;8143110;29;20178;-59
2022/03/26 02:11:56;;;;;;;23.77;12.10;;;;;;;;;;8145639;28;20035;-58
2022/03/26 02:15:56;;;;;;;24.48;10.80;;;;;;;;;;8145822;28;20042;-59
2022/03/26 02:19:58;;;;;;;20.67;11.25;;;;;;;;;;8144232;28;20031;-59
2022/03/26 02:23:58;;;;;;;22.33;10.68;;;;;;;;;;8146157;29;20039;-59
2022/03/26 02:27:58;;;;;;;20.48;10.73;;;;;;;;;;8147040;29;20035;-60
2022/03/26 02:31:58;;;;;;;22.25;11.15;;;;;;;;;;8144796;28;20043;-60
2022/03/26 02:35:59;;;;;;;26.25;12.10;;;;;;;;;;8146887;28;20027;-59
2022/03/26 02:40:00;;;;;;;22.23;11.55;;;;;;;;;;8143218;29;20121;-59
2022/03/26 02:44:00;;;;;;;21.10;10.73;;;;;;;;;;8144384;28;20035;-59
2022/03/26 02:48:01;;;;;;;21.40;11.10;;;;;;;;;;8144411;28;20905;-59
2022/03/26 02:52:01;;;;;;;21.52;11.43;;;;;;;;;;8145089;28;20027;-59
2022/03/26 02:56:01;;;;;;;22.15;11.70;;;;;;;;;;8143837;28;20179;-59
2022/03/26 03:00:03;;;;;;;18.33;10.60;;;;;;;;;;8142839;28;20075;-60
2022/03/26 03:04:03;;;;;;;27.23;11.93;;;;;;;;;;8138769;29;20685;-59
2022/03/26 03:08:03;;;;;;;25.55;11.57;;;;;;;;;;8144254;28;20138;-59
2022/03/26 03:12:04;;;;;;;19.67;11.20;;;;;;;;;;8144664;29;20027;-59
2022/03/26 03:16:05;;;;;;;22.65;10.85;;;;;;;;;;8143476;28;20070;-59
2022/03/26 03:20:06;;;;;;;19.40;10.65;;;;;;;;;;8146165;28;20035;-59
2022/03/26 03:24:06;;;;;;;22.60;11.07;;;;;;;;;;8143356;29;20147;-59
2022/03/26 03:28:06;;;;;;;26.52;12.02;;;;;;;;;;8143864;29;20035;-59
2022/03/26 03:32:07;;;;;;;24.25;11.82;;;;;;;;;;8149354;28;20461;-59
2022/03/26 03:36:07;;;;;;;25.50;12.43;;;;;;;;;;8150887;28;20040;-59
2022/03/26 03:40:08;;;;;;;22.85;10.82;;;;;;;;;;8149896;28;20473;-59
2022/03/26 03:44:10;;;;;;;25.25;11.98;;;;;;;;;;8149685;29;20047;-59
2022/03/26 03:48:10;;;;;;;23.42;11.15;;;;;;;;;;8150421;28;20040;-59
2022/03/26 03:52:10;;;;;;;19.85;11.25;;;;;;;;;;8146862;29;20633;-59
2022/03/26 03:56:10;;;;;;;21.27;11.05;;;;;;;;;;8148389;28;20512;-59
2022/03/26 04:00:11;;;;;;;22.97;10.87;;;;;;;;;;8144808;28;20035;-58
2022/03/26 04:04:11;;;;;;;22.23;11.35;;;;;;;;;;8148845;29;20059;-59
2022/03/26 04:08:12;;;;;;;24.52;11.13;;;;;;;;;;8147792;28;20606;-59
2022/03/26 04:12:12;;;;;;;20.52;10.45;;;;;;;;;;8146724;28;20468;-60
2022/03/26 04:16:12;;;;;;;21.08;10.95;;;;;;;;;;8147476;28;20803;-59
2022/03/26 04:20:13;;;;;;;22.88;11.25;;;;;;;;;;8145874;29;20582;-59
2022/03/26 04:24:13;;;;;;;23.80;11.07;;;;;;;;;;8146519;28;20447;-59
2022/03/26 04:28:13;;;;;;;24.30;10.93;;;;;;;;;;8146993;28;20263;-59
2022/03/26 04:32:13;;;;;;;24.10;10.27;;;;;;;;;;8146648;28;20382;-59
2022/03/26 04:36:14;;;;;;;26.75;11.50;;;;;;;;;;8144417;28;20425;-59
2022/03/26 04:40:14;;;;;;;26.65;12.10;;;;;;;;;;8146038;28;20038;-58
2022/03/26 04:44:15;;;;;;;20.88;10.75;;;;;;;;;;8146493;29;20038;-59
2022/03/26 04:48:15;;;;;;;18.08;9.80;;;;;;;;;;8146970;28;20452;-59
2022/03/26 04:52:15;;;;;;;25.05;11.38;;;;;;;;;;8146238;28;20036;-59
2022/03/26 04:56:15;;;;;;;25.70;11.00;;;;;;;;;;8144399;29;20501;-58
2022/03/26 05:00:17;;;;;;;28.33;10.95;;;;;;;;;;8144311;28;20070;-58
2022/03/26 05:04:17;;;;;;;25.50;11.43;;;;;;;;;;8144937;29;20042;-58
2022/03/26 05:08:17;;;;;;;25.00;11.77;;;;;;;;;;8146443;28;21126;-58
2022/03/26 05:12:18;;;;;;;20.25;10.95;;;;;;;;;;8145911;28;20035;-59
2022/03/26 05:16:18;;;;;;;22.70;10.75;;;;;;;;;;8146825;28;20385;-59
2022/03/26 05:20:19;;;;;;;20.10;11.20;;;;;;;;;;8144713;28;20131;-59
2022/03/26 05:24:19;;;;;;;24.33;11.68;;;;;;;;;;8146263;29;20031;-58
2022/03/26 05:28:19;;;;;;;24.77;11.25;;;;;;;;;;8143714;29;20485;-58
2022/03/26 05:32:19;;;;;;;22.70;11.05;;;;;;;;;;8143396;28;20039;-60
2022/03/26 05:36:19;;;;;;;22.00;11.63;;;;;;;;;;8144824;28;20114;-59
2022/03/26 05:40:20;;;;;;;23.60;11.00;;;;;;;;;;8142327;28;20037;-59
2022/03/26 05:44:21;;;;;;;20.73;10.60;;;;;;;;;;8145454;29;20030;-59
2022/03/26 05:48:21;;;;;;;25.17;12.30;;;;;;;;;;8141960;28;20710;-59
2022/03/26 05:52:21;;;;;;;25.35;11.70;;;;;;;;;;8143665;29;20023;-59
2022/03/26 05:56:21;;;;;;;23.42;11.10;;;;;;;;;;8145018;28;20719;-58
2022/03/26 06:00:22;;;;;;;26.42;12.63;;;;;;;;;;8143739;28;25407;-59
2022/03/26 06:04:27;;;;;;;22.58;11.73;;;;;;;;;;8145792;28;20031;-58
2022/03/26 06:08:27;;;;;;;20.58;10.90;;;;;;;;;;8144332;28;20035;-58
2022/03/26 06:12:27;;;;;;;20.00;11.32;;;;;;;;;;8142728;28;20031;-59
2022/03/26 06:16:27;;;;;;;25.40;12.23;;;;;;;;;;8144285;28;20039;-60
2022/03/26 06:20:28;;;;;;;24.58;12.35;;;;;;;;;;8143886;28;20151;-59
2022/03/26 06:24:28;;;;;;;26.83;13.25;;;;;;;;;;8143921;29;20289;-59
2022/03/26 06:28:28;;;;;;;22.73;13.05;;;;;;;;;;8142760;28;20027;-59
2022/03/26 06:32:29;;;;;;;25.08;12.70;;;;;;;;;;8142270;28;20043;-60
2022/03/26 06:36:29;;;;;;;24.15;13.25;;;;;;;;;;8144010;29;20129;-60
2022/03/26 06:40:30;;;;;;;27.35;14.07;;;;;;;;;;8143767;28;20051;-60
2022/03/26 06:44:30;;;;;;;22.33;13.15;;;;;;;;;;8143582;28;20027;-60
2022/03/26 06:48:31;;;;;;;25.98;15.23;;;;;;;;;;8142164;28;20348;-60
2022/03/26 06:52:31;;;;;;;22.95;13.15;;;;;;;;;;8142234;28;20421;-60
2022/03/26 06:56:31;;;;;;;25.27;15.15;;;;;;;;;;8142298;28;20023;-60
2022/03/26 07:00:32;;;;;;;24.75;15.98;;;;;;;;;;8140774;28;20040;-60
2022/03/26 07:04:32;;;;;;;25.92;14.60;;;;;;;;;;8148028;28;20429;-60
2022/03/26 07:08:32;;;;;;;26.08;15.77;;;;;;;;;;8150829;28;20432;-60
2022/03/26 07:12:32;;;;;;;26.13;15.95;;;;;;;;;;8154079;28;20066;-60
2022/03/26 07:16:32;;;;;;;33.80;16.10;;;;;;;;;;8152096;28;20627;-60
2022/03/26 07:20:33;;;;;;;30.77;17.05;;;;;;;;;;8151078;29;20578;-60
2022/03/26 07:24:33;;;;;;;22.67;15.88;;;;;;;;;;8151541;28;20085;-60
2022/03/26 07:28:34;;;;;;;27.83;16.48;;;;;;;;;;8154041;29;20462;-60
2022/03/26 07:32:34;;;;;;;29.95;16.10;;;;;;;;;;8152686;28;20043;-60
2022/03/26 07:36:35;;;;;;;28.57;17.33;;;;;;;;;;8155065;28;20097;-60
2022/03/26 07:40:35;;;;;;;26.23;16.45;;;;;;;;;;8151040;28;20291;-60
2022/03/26 07:44:36;;;;;;;23.20;15.97;;;;;;;;;;8153531;28;20034;-60
2022/03/26 07:48:36;;;;;;;26.45;16.88;;;;;;;;;;8152415;28;20113;-60
2022/03/26 07:52:36;;;;;;;29.38;17.25;;;;;;;;;;8151761;28;20540;-60
2022/03/26 07:56:37;;;;;;;28.13;17.42;;;;;;;;;;8151371;29;20325;-60
2022/03/26 08:00:38;;;;;;;31.67;17.38;;;;;;;;;;8153445;28;20485;-60
2022/03/26 08:04:38;;;;;;;29.27;17.38;;;;;;;;;;8152616;29;20023;-60
2022/03/26 08:08:40;;;;;;;27.77;17.45;;;;;;;;;;8153120;28;20364;-60
2022/03/26 08:12:40;;;;;;;26.65;17.80;;;;;;;;;;8151070;28;20554;-60
2022/03/26 08:16:41;;;;;;;26.80;16.73;;;;;;;;;;8148865;28;20050;-60
2022/03/26 08:20:41;;;;;;;28.38;17.95;;;;;;;;;;8147096;28;20658;-60
2022/03/26 08:24:41;;;;;;;26.20;17.45;;;;;;;;;;8148212;29;20067;-60
2022/03/26 08:28:41;;;;;;;27.77;16.73;;;;;;;;;;8146863;28;20077;-60
2022/03/26 08:32:42;;;;;;;26.33;17.43;;;;;;;;;;8147136;28;20067;-61
2022/03/26 08:36:42;;;;;;;28.47;17.80;;;;;;;;;;8145599;29;20310;-60
2022/03/26 08:40:42;;;;;;;25.43;17.33;;;;;;;;;;8145902;28;20035;-60
2022/03/26 08:44:42;;;;;;;34.13;17.70;;;;;;;;;;8148267;28;20427;-60
2022/03/26 08:48:43;;;;;;;29.13;18.50;;;;;;;;;;8146318;28;20068;-60
2022/03/26 08:52:43;;;;;;;33.03;19.43;;;;;;;;;;8146313;28;20067;-60
2022/03/26 08:56:43;;;;;;;30.17;19.50;;;;;;;;;;8145310;28;20548;-60
2022/03/26 09:00:45;;;;;;;33.55;19.60;;;;;;;;;;8146705;28;20047;-60
2022/03/26 09:04:46;;;;;;;32.08;19.48;;;;;;;;;;8146920;28;20461;-59
2022/03/26 09:08:46;;;;;;;31.83;18.90;;;;;;;;;;8146538;29;20089;-59
2022/03/26 09:12:47;;;;;;;32.15;19.73;;;;;;;;;;8145165;28;20035;-59
2022/03/26 09:16:47;;;;;;;36.80;20.48;;;;;;;;;;8145919;28;20066;-61
2022/03/26 09:20:47;;;;;;;35.05;20.67;;;;;;;;;;8145433;29;20137;-60
2022/03/26 09:24:47;;;;;;;31.20;20.27;;;;;;;;;;8145938;29;20023;-59
2022/03/26 09:28:48;;;;;;;30.83;20.23;;;;;;;;;;8143046;28;20532;-59
2022/03/26 09:32:48;;;;;;;34.53;20.55;;;;;;;;;;8145030;28;20039;-59
2022/03/26 09:36:48;;;;;;;30.67;19.30;;;;;;;;;;8146143;28;20034;-59
2022/03/26 09:40:49;;;;;;;36.13;20.83;;;;;;;;;;8142896;28;20034;-59
2022/03/26 09:44:50;;;;;;;34.55;22.63;;;;;;;;;;8144163;29;20094;-59
2022/03/26 09:48:51;;;;;;;29.98;20.67;;;;;;;;;;8144198;28;20035;-59
2022/03/26 09:52:51;;;;;;;35.10;21.98;;;;;;;;;;8145036;29;20035;-59
2022/03/26 09:56:51;;;;;;;34.60;20.45;;;;;;;;;;8147232;28;20043;-59
2022/03/26 10:00:53;;;;;;;32.08;21.25;;;;;;;;;;8143290;28;20074;-59
2022/03/26 10:04:53;;;;;;;36.38;20.85;;;;;;;;;;8141712;28;20019;-59
2022/03/26 10:08:53;;;;;;;33.08;20.45;;;;;;;;;;8143531;29;20034;-58
2022/03/26 10:12:54;;;;;;;36.85;21.17;;;;;;;;;;8143532;28;20031;-59
2022/03/26 10:16:54;;;;;;;30.80;20.00;;;;;;;;;;8144859;28;20508;-59
2022/03/26 10:20:58;;;;;;;31.50;20.30;;;;;;;;;;8140672;29;20166;-59
2022/03/26 10:25:07;;;;;;;35.58;20.73;;;;;;;;;;8143792;28;20041;-59
2022/03/26 10:29:09;;;;;;;34.50;19.85;;;;;;;;;;8142811;29;20042;-59
2022/03/26 10:33:20;;;;;;;36.83;21.17;;;;;;;;;;8143968;28;20484;-60
2022/03/26 10:37:20;;;;;;;31.55;19.35;;;;;;;;;;8144412;28;20039;-59
2022/03/26 10:41:21;;;;;;;33.90;20.25;;;;;;;;;;8139837;28;20031;-59
2022/03/26 10:45:21;;;;;;;31.15;19.23;;;;;;;;;;8142583;28;20031;-60
2022/03/26 10:49:26;;;;;;;33.92;18.17;;;;;;;;;;8143575;28;20045;-60
2022/03/26 10:53:35;;;;;;;32.97;18.15;;;;;;;;;;8144226;29;20533;-60
2022/03/26 10:57:35;;;;;;;32.22;18.77;;;;;;;;;;8142581;28;20046;-60
2022/03/26 11:01:36;;;;;;;29.60;17.40;;;;;;;;;;8142062;28;20051;-60
2022/03/26 11:05:36;;;;;;;30.85;17.88;;;;;;;;;;8141960;28;20362;-60
2022/03/26 11:09:37;;;;;;;34.88;19.08;;;;;;;;;;8140759;28;20474;-59
2022/03/26 11:13:49;;;;;;;29.90;19.30;;;;;;;;;;8144332;29;20573;-60
2022/03/26 11:18:06;;;;;;;33.97;17.45;;;;;;;;;;8141797;28;20054;-60
2022/03/26 11:22:22;;;;;;;33.17;18.23;;;;;;;;;;8140855;29;20046;-60
2022/03/26 11:26:29;;;;;;;26.95;14.93;;;;;;;;;;8141705;29;20039;-60
2022/03/26 11:30:35;;;;;;;25.40;14.60;;;;;;;;;;8141155;28;20039;-60
2022/03/26 11:34:36;;;;;;;29.73;16.17;;;;;;;;;;8140687;28;20035;-59
2022/03/26 11:38:37;;;;;;;28.40;15.82;;;;;;;;;;8138057;29;20065;-59
2022/03/26 11:42:37;;;;;;;27.55;15.27;;;;;;;;;;8138706;29;20040;-60
2022/03/26 11:51:17;;;;;;;25.52;15.60;;;;;;;;;;8145602;28;20683;-60
2022/03/26 11:55:18;;;;;;;26.33;16.08;;;;;;;;;;8150033;29;20295;-60
2022/03/26 11:59:20;;;;;;;26.00;15.40;;;;;;;;;;8148401;29;20537;-60
2022/03/26 12:03:21;;;;;;;26.70;16.50;;;;;;;;;;8149719;28;20054;-60
2022/03/26 12:07:22;;;;;;;25.42;15.88;;;;;;;;;;8149129;29;20047;-60
2022/03/26 12:11:26;;;;;;;24.30;16.30;;;;;;;;;;8149973;29;20063;-60
2022/03/26 12:15:26;;;;;;;;;;;;;;;;;;8150119;28;20039;-61
2022/03/26 12:19:39;;;;;;;23.30;13.90;;;;;;;;;;8147647;29;19911;-60
2022/03/26 12:23:39;;;;;;;21.57;13.47;;;;;;;;;;8151405;28;20035;-60
2022/03/26 12:27:39;;;;;;;21.77;13.40;;;;;;;;;;8148470;29;20026;-60
2022/03/26 12:31:40;;;;;;;24.52;15.07;;;;;;;;;;8145894;28;20113;-61
2022/03/26 12:35:42;;;;;;;24.80;14.43;;;;;;;;;;8150794;29;20198;-60
2022/03/26 12:39:43;;;;;;;25.25;14.45;;;;;;;;;;8146441;28;20319;-60
2022/03/26 12:43:53;;;;;;;23.15;13.77;;;;;;;;;;8148629;29;20026;-60
2022/03/26 12:47:54;;;;;;;25.08;14.15;;;;;;;;;;8146593;28;20839;-60
2022/03/26 12:51:55;;;;;;;25.30;14.30;;;;;;;;;;8149391;29;20116;-60
2022/03/26 12:55:56;;;;;;;26.73;14.43;;;;;;;;;;8146941;29;20036;-60
2022/03/26 12:59:56;;;;;;;28.70;13.85;;;;;;;;;;8149615;28;20062;-60
2022/03/26 13:03:57;;;;;;;21.63;13.30;;;;;;;;;;8148152;28;20046;-60
2022/03/26 13:07:57;;;;;;;24.25;13.10;;;;;;;;;;8150794;29;20027;-60
2022/03/26 13:11:58;;;;;;;23.20;13.63;;;;;;;;;;8145119;28;20610;-60
2022/03/26 13:15:59;;;;;;;27.60;13.35;;;;;;;;;;8149905;28;20067;-60
2022/03/26 13:19:59;;;;;;;20.15;13.57;;;;;;;;;;8146024;28;20440;-60
2022/03/26 13:24:07;;;;;;;23.27;13.50;;;;;;;;;;8149894;29;20101;-61
2022/03/26 13:28:14;;;;;;;24.00;13.50;;;;;;;;;;8147915;29;20424;-60
2022/03/26 13:32:15;;;;;;;21.65;12.30;;;;;;;;;;8147370;28;20109;-61
2022/03/26 13:36:25;;;;;;;23.90;13.23;;;;;;;;;;8147528;28;20146;-60
2022/03/26 13:40:32;;;;;;;23.83;13.00;;;;;;;;;;8150221;28;20047;-60
2022/03/26 13:44:33;;;;;;;28.08;13.43;;;;;;;;;;8151253;28;20039;-61
2022/03/26 13:48:48;;;;;;;21.20;13.00;;;;;;;;;;8149676;28;20046;-60
2022/03/26 13:52:51;;;;;;;30.67;13.77;;;;;;;;;;8147747;29;20689;-60
2022/03/26 13:56:54;;;;;;;22.70;12.97;;;;;;;;;;8149944;29;20030;-60
2022/03/26 14:00:55;;;;;;;21.77;13.73;;;;;;;;;;8151422;28;20280;-59
2022/03/26 14:04:55;;;;;;;24.30;13.10;;;;;;;;;;8150384;29;20509;-59
2022/03/26 14:08:55;;;;;;;24.88;12.90;;;;;;;;;;8147688;28;20097;-60
2022/03/26 14:12:55;;;;;;;23.50;13.00;;;;;;;;;;8148592;28;20031;-60
2022/03/26 14:16:55;;;;;;;22.73;13.05;;;;;;;;;;8149306;28;20154;-60
2022/03/26 14:20:56;;;;;;;25.02;13.43;;;;;;;;;;8147652;29;20027;-59
2022/03/26 14:24:56;;;;;;;25.75;14.52;;;;;;;;;;8146527;29;20057;-59
2022/03/26 14:28:56;;;;;;;28.35;14.52;;;;;;;;;;8144887;29;20058;-59
2022/03/26 14:33:01;;;;;;;27.03;13.67;;;;;;;;;;8149253;28;20050;-60
2022/03/26 14:37:01;;;;;;;27.00;13.40;;;;;;;;;;8147303;28;20314;-60
2022/03/26 14:41:02;;;;;;;25.98;13.95;;;;;;;;;;8147038;29;20042;-60
2022/03/26 14:45:03;;;;;;;26.70;13.27;;;;;;;;;;8143743;28;20475;-60
2022/03/26 14:49:03;;;;;;;24.52;12.90;;;;;;;;;;8145536;29;20264;-60
2022/03/26 14:53:04;;;;;;;27.33;12.60;;;;;;;;;;8147773;29;20050;-60
2022/03/26 14:57:04;;;;;;;20.93;12.80;;;;;;;;;;8144344;29;20296;-60
2022/03/26 15:01:05;;;;;;;24.95;11.63;;;;;;;;;;8145283;28;20625;-61
2022/03/26 15:05:05;;;;;;;22.48;11.27;;;;;;;;;;8147191;28;20031;-60
2022/03/26 15:09:05;;;;;;;28.20;10.50;;;;;;;;;;8144898;28;20031;-59
2022/03/26 15:13:06;;;;;;;27.83;10.27;;;;;;;;;;8144572;29;20493;-60
2022/03/26 15:17:06;;;;;;;24.58;12.45;;;;;;;;;;8145249;28;20074;-60
2022/03/26 15:21:06;;;;;;;24.25;11.95;;;;;;;;;;8143856;28;20027;-59
2022/03/26 15:25:07;;;;;;;32.38;14.45;;;;;;;;;;8146616;28;20110;-60
2022/03/26 15:29:07;;;;;;;23.45;11.93;;;;;;;;;;8151200;29;20035;-60
2022/03/26 15:33:08;;;;;;;23.87;12.77;;;;;;;;;;8149230;28;20035;-60
2022/03/26 15:37:08;;;;;;;27.63;12.52;;;;;;;;;;8153657;28;20271;-60
2022/03/26 15:41:08;;;;;;;22.40;12.13;;;;;;;;;;8150637;28;20050;-60
2022/03/26 15:45:10;;;;;;;23.95;12.32;;;;;;;;;;8151421;28;20023;-60
2022/03/26 15:49:10;;;;;;;23.08;12.57;;;;;;;;;;8150229;29;20139;-59
2022/03/26 15:53:10;;;;;;;23.97;12.03;;;;;;;;;;8151872;28;20063;-60
2022/03/26 15:57:10;;;;;;;28.33;15.65;;;;;;;;;;8152300;29;20042;-60
2022/03/26 16:01:11;;;;;;;34.67;14.57;;;;;;;;;;8152387;28;20050;-60
2022/03/26 16:05:11;;;;;;;25.73;14.10;;;;;;;;;;8155165;28;20776;-60
2022/03/26 16:09:11;;;;;;;30.03;14.87;;;;;;;;;;8152321;28;20042;-60
2022/03/26 16:13:12;;;;;;;26.10;13.38;;;;;;;;;;8154699;28;20114;-60
2022/03/26 16:17:12;;;;;;;27.63;12.88;;;;;;;;;;8151302;28;20050;-59
2022/03/26 16:21:12;;;;;;;25.13;13.48;;;;;;;;;;8153585;29;20237;-60
2022/03/26 16:25:13;;;;;;;20.20;11.55;;;;;;;;;;8153929;28;20118;-60
2022/03/26 16:29:13;;;;;;;21.45;12.07;;;;;;;;;;8154034;28;20951;-59
2022/03/26 16:33:13;;;;;;;26.42;12.35;;;;;;;;;;8150358;28;20053;-59
2022/03/26 16:37:13;;;;;;;24.20;11.97;;;;;;;;;;8145385;28;20801;-59
2022/03/26 16:41:14;;;;;;;22.23;11.98;;;;;;;;;;8150371;29;20350;-59
2022/03/26 16:45:14;;;;;;;28.52;12.30;;;;;;;;;;8146721;28;20174;-59
2022/03/26 16:49:15;;;;;;;20.92;11.10;;;;;;;;;;8146128;29;20593;-59
2022/03/26 16:53:15;;;;;;;25.48;12.48;;;;;;;;;;8145484;28;20035;-59
2022/03/26 16:57:15;;;;;;;21.45;10.80;;;;;;;;;;8142868;28;20051;-59
2022/03/26 17:01:15;;;;;;;22.33;10.73;;;;;;;;;;8146104;28;20047;-59
2022/03/26 17:05:15;;;;;;;21.10;10.85;;;;;;;;;;8145541;29;20936;-59
2022/03/26 17:09:16;;;;;;;21.38;11.43;;;;;;;;;;8144169;29;20035;-59
2022/03/26 17:13:16;;;;;;;22.15;11.52;;;;;;;;;;8143496;29;20027;-59
2022/03/26 17:17:16;;;;;;;21.65;10.73;;;;;;;;;;8149550;28;20811;-59
2022/03/26 17:21:16;;;;;;;20.40;9.93;;;;;;;;;;8151043;28;20051;-60
2022/03/26 17:25:16;;;;;;;24.13;10.23;;;;;;;;;;8145798;28;20091;-60
2022/03/26 17:29:17;;;;;;;24.10;10.65;;;;;;;;;;8147828;28;20040;-59
2022/03/26 17:33:17;;;;;;;23.27;10.73;;;;;;;;;;8146246;28;20044;-59
2022/03/26 17:37:17;;;;;;;20.92;9.90;;;;;;;;;;8148159;28;20114;-59
2022/03/26 17:41:17;;;;;;;19.65;10.18;;;;;;;;;;8146952;28;20042;-59
2022/03/26 17:45:17;;;;;;;21.70;9.75;;;;;;;;;;8147921;28;20035;-60
2022/03/26 17:49:18;;;;;;;15.27;9.20;;;;;;;;;;8147533;28;20142;-59
2022/03/26 17:53:18;;;;;;;17.45;9.88;;;;;;;;;;8147791;28;20031;-59
2022/03/26 17:57:18;;;;;;;22.10;9.98;;;;;;;;;;8144333;28;20062;-59
2022/03/26 18:01:19;;;;;;;26.27;9.38;;;;;;;;;;8142555;28;20040;-59
2022/03/26 18:05:19;;;;;;;28.67;10.25;;;;;;;;;;8146140;28;20405;-59
2022/03/26 18:09:19;;;;;;;23.25;9.95;;;;;;;;;;8146929;29;20033;-59
2022/03/26 18:13:20;;;;;;;19.75;10.43;;;;;;;;;;8145830;28;20046;-59
2022/03/26 18:17:20;;;;;;;21.73;10.15;;;;;;;;;;8145128;28;20039;-59
2022/03/26 18:21:20;;;;;;;24.58;10.98;;;;;;;;;;8146304;28;20035;-59
2022/03/26 18:25:20;;;;;;;23.13;10.63;;;;;;;;;;8146136;28;20030;-59
2022/03/26 18:29:21;;;;;;;19.80;9.95;;;;;;;;;;8145799;29;20031;-59
2022/03/26 18:33:21;;;;;;;20.50;10.32;;;;;;;;;;8145239;28;21141;-59
2022/03/26 18:37:23;;;;;;;20.60;10.80;;;;;;;;;;8146248;28;20032;-60
2022/03/26 18:41:24;;;;;;;22.13;10.23;;;;;;;;;;8144710;29;20294;-59
2022/03/26 18:45:24;;;;;;;22.45;10.90;;;;;;;;;;8146692;28;20587;-59
2022/03/26 18:49:24;;;;;;;21.05;10.27;;;;;;;;;;8145052;28;20038;-59
2022/03/26 18:53:25;;;;;;;22.27;10.98;;;;;;;;;;8145918;28;20027;-59
2022/03/26 18:57:25;;;;;;;22.63;10.60;;;;;;;;;;8147304;28;20062;-59
2022/03/26 19:01:25;;;;;;;21.88;10.40;;;;;;;;;;8144622;28;20665;-59
2022/03/26 19:05:26;;;;;;;18.77;10.10;;;;;;;;;;8144016;29;20027;-58
2022/03/26 19:09:26;;;;;;;23.75;10.35;;;;;;;;;;8144734;28;20719;-59
2022/03/26 19:13:26;;;;;;;19.67;10.38;;;;;;;;;;8144536;28;20660;-58
2022/03/26 19:17:26;;;;;;;20.40;10.47;;;;;;;;;;8144872;28;20043;-59
2022/03/26 19:21:27;;;;;;;18.42;10.00;;;;;;;;;;8144046;28;20054;-59
2022/03/26 19:25:29;;;;;;;18.33;9.48;;;;;;;;;;8146135;28;20616;-59
2022/03/26 19:29:40;;;;;;;17.10;8.48;;;;;;;;;;8145875;28;20024;-59
2022/03/26 19:33:40;;;;;;;21.58;8.38;;;;;;;;;;8142849;28;20047;-59
2022/03/26 19:37:41;;;;;;;20.80;8.07;;;;;;;;;;8144422;28;20408;-59
2022/03/26 19:41:42;;;;;;;13.90;7.78;;;;;;;;;;8144309;28;20039;-59
2022/03/26 19:45:42;;;;;;;16.10;7.67;;;;;;;;;;8144725;28;20054;-59
2022/03/26 19:49:42;;;;;;;13.25;7.68;;;;;;;;;;8144312;28;20030;-59
2022/03/26 19:53:42;;;;;;;16.30;7.65;;;;;;;;;;8146898;28;20197;-59
2022/03/26 19:57:43;;;;;;;11.77;7.20;;;;;;;;;;8144642;28;20038;-59
2022/03/26 20:01:43;;;;;;;18.80;8.00;;;;;;;;;;8144155;28;20035;-59
2022/03/26 20:05:43;;;;;;;15.48;7.50;;;;;;;;;;8143589;28;20275;-59
2022/03/26 20:09:44;;;;;;;15.30;7.47;;;;;;;;;;8144100;28;20020;-59
2022/03/26 20:13:47;;;;;;;15.10;7.53;;;;;;;;;;8149831;28;20160;-59
2022/03/26 20:22:06;;;;;;;13.45;7.85;;;;;;;;;;8149397;28;20094;-59
2022/03/26 20:26:06;;;;;;;16.80;8.20;;;;;;;;;;8151228;28;20023;-59
2022/03/26 20:30:07;;;;;;;12.10;7.13;;;;;;;;;;8149241;28;20011;-60
2022/03/26 20:34:07;;;;;;;13.60;6.78;;;;;;;;;;8148394;28;20494;-59
2022/03/26 20:38:08;;;;;;;15.43;6.73;;;;;;;;;;8148844;29;20089;-59
2022/03/26 20:42:08;;;;;;;11.55;6.35;;;;;;;;;;8147797;28;20289;-59
2022/03/26 20:46:08;;;;;;;13.73;6.72;;;;;;;;;;8149700;28;20099;-59
2022/03/26 20:50:09;;;;;;;11.98;6.60;;;;;;;;;;8146700;28;20023;-59
2022/03/26 20:54:09;;;;;;;13.27;6.72;;;;;;;;;;8148452;28;20046;-60
2022/03/26 20:58:10;;;;;;;12.82;6.68;;;;;;;;;;8143727;28;20503;-59
2022/03/26 21:02:10;;;;;;;12.90;6.93;;;;;;;;;;8146967;28;20031;-59
2022/03/26 21:06:11;;;;;;;13.33;6.60;;;;;;;;;;8146548;28;20027;-59
2022/03/26 21:10:11;;;;;;;10.82;6.72;;;;;;;;;;8149146;28;20279;-60
2022/03/26 21:14:12;;;;;;;10.00;7.20;;;;;;;;;;8144904;28;20031;-59
2022/03/26 21:18:12;;;;;;;10.88;6.22;;;;;;;;;;8144601;28;20441;-59
2022/03/26 21:22:12;;;;;;;10.90;6.55;;;;;;;;;;8142020;28;20091;-59
2022/03/26 21:26:12;;;;;;;12.95;6.40;;;;;;;;;;8141684;28;20027;-59
2022/03/26 21:30:13;;;;;;;11.73;6.90;;;;;;;;;;8140197;28;20061;-60
2022/03/26 21:34:13;;;;;;;11.45;6.47;;;;;;;;;;8141265;29;20889;-59
2022/03/26 21:38:14;;;;;;;11.68;7.00;;;;;;;;;;8146384;28;20039;-59
2022/03/26 21:42:14;;;;;;;10.55;6.60;;;;;;;;;;8147500;29;20154;-59
2022/03/26 21:46:15;;;;;;;12.05;6.65;;;;;;;;;;8146991;28;20039;-59
2022/03/26 21:50:15;;;;;;;11.73;6.88;;;;;;;;;;8146265;28;20096;-59
2022/03/26 21:54:16;;;;;;;12.02;7.45;;;;;;;;;;8147953;28;20556;-59
2022/03/26 21:58:18;;;;;;;10.77;7.25;;;;;;;;;;8144322;29;20023;-59
2022/03/26 22:02:18;;;;;;;12.63;7.20;;;;;;;;;;8145580;28;20186;-59
2022/03/26 22:06:18;;;;;;;13.63;7.75;;;;;;;;;;8142749;28;20420;-59
2022/03/26 22:10:18;;;;;;;12.52;7.22;;;;;;;;;;8142971;28;20027;-59
2022/03/26 22:14:19;;;;;;;13.07;7.45;;;;;;;;;;8146227;28;20019;-59
2022/03/26 22:18:19;;;;;;;13.47;7.87;;;;;;;;;;8146682;28;20146;-59
2022/03/26 22:22:21;;;;;;;12.55;7.60;;;;;;;;;;8145833;28;20059;-59
2022/03/26 22:26:21;;;;;;;14.32;7.82;;;;;;;;;;8146152;28;20158;-60
2022/03/26 22:30:21;;;;;;;14.07;8.13;;;;;;;;;;8144546;28;20023;-59
2022/03/26 22:34:21;;;;;;;12.38;7.72;;;;;;;;;;8145923;28;20028;-59
2022/03/26 22:38:21;;;;;;;14.63;7.60;;;;;;;;;;8145738;28;20217;-59
2022/03/26 22:42:22;;;;;;;12.77;8.07;;;;;;;;;;8145852;28;20035;-59
2022/03/26 22:46:22;;;;;;;15.60;8.50;;;;;;;;;;8147815;28;20476;-59
2022/03/26 22:50:23;;;;;;;13.52;8.13;;;;;;;;;;8144897;28;20031;-59
2022/03/26 22:54:23;;;;;;;12.77;8.70;;;;;;;;;;8142341;28;21114;-59
2022/03/26 22:58:25;;;;;;;12.68;8.27;;;;;;;;;;8147503;28;20050;-58
2022/03/26 23:02:26;;;;;;;17.35;8.98;;;;;;;;;;8135252;28;20075;-58
2022/03/26 23:06:26;;;;;;;13.93;8.90;;;;;;;;;;8123632;29;20047;-59
2022/03/26 23:10:27;;;;;;;15.45;9.35;;;;;;;;;;8119801;29;20024;-59
2022/03/26 23:14:27;;;;;;;12.93;8.52;;;;;;;;;;8123656;29;20035;-59
2022/03/26 23:18:27;;;;;;;14.82;8.52;;;;;;;;;;8143344;28;20422;-60
2022/03/26 23:22:28;;;;;;;14.77;8.38;;;;;;;;;;8144301;28;20035;-59
2022/03/26 23:26:28;;;;;;;14.17;8.40;;;;;;;;;;8143126;28;20473;-59
2022/03/26 23:30:28;;;;;;;14.95;8.65;;;;;;;;;;8143391;28;20263;-59
2022/03/26 23:34:29;;;;;;;15.13;8.68;;;;;;;;;;8144851;29;20893;-59
2022/03/26 23:38:30;;;;;;;15.65;9.40;;;;;;;;;;8144360;28;20019;-59